createdAt,value
2022-12-28T00:00:30.038Z,100650.09
2022-12-28T00:03:36.152Z,100646.65
2022-12-28T00:06:41.442Z,100650.35
2022-12-28T00:09:47.327Z,100647.52
2022-12-28T00:12:54.163Z,100649.38
2022-12-28T00:16:00.891Z,100645.06
2022-12-28T00:19:06.898Z,100647.91
2022-12-28T00:22:13.527Z,100644.36
2022-12-28T00:25:19.668Z,100642.77
2022-12-28T00:28:24.965Z,100653.80
2022-12-28T00:31:31.497Z,100636.59
2022-12-28T00:34:37.709Z,100653.56
2022-12-28T00:37:43.695Z,100659.20
2022-12-28T00:40:49.871Z,100657.86
2022-12-28T00:43:55.905Z,100672.73
2022-12-28T00:47:01.398Z,100663.75
2022-12-28T00:50:07.701Z,100658.34
2022-12-28T00:53:13.835Z,100668.91
2022-12-28T00:56:32.039Z,100678.38
2022-12-28T00:59:39.615Z,100674.07
2022-12-28T01:02:44.547Z,100683.20
2022-12-28T01:05:52.560Z,100680.25
2022-12-28T01:08:57.611Z,100681.96
2022-12-28T01:12:03.778Z,100681.84
2022-12-28T01:15:09.982Z,100682.83
2022-12-28T01:18:14.940Z,100680.73
2022-12-28T01:21:32.780Z,100688.24
2022-12-28T01:24:39.458Z,100680.48
2022-12-28T01:27:46.143Z,100685.41
2022-12-28T01:30:53.402Z,100688.12
2022-12-28T01:34:02.135Z,100687.00
2022-12-28T01:37:01.065Z,100681.11
2022-12-28T01:40:00.793Z,100677.05
2022-12-28T01:43:06.672Z,100689.22
2022-12-28T01:46:12.103Z,100694.75
2022-12-28T01:49:34.789Z,100698.55
2022-12-28T01:52:48.808Z,100696.09
2022-12-28T01:55:55.135Z,100701.84
2022-12-28T01:59:01.076Z,100704.16
2022-12-28T02:02:08.480Z,100718.24
2022-12-28T02:05:15.346Z,100719.08
2022-12-28T02:08:36.419Z,100719.28
2022-12-28T02:11:41.764Z,100716.22
2022-12-28T02:14:47.708Z,100717.89
2022-12-28T02:17:54.117Z,100713.23
2022-12-28T02:21:16.082Z,100710.77
2022-12-28T02:25:16.707Z,100718.71
2022-12-28T02:29:04.161Z,100727.41
2022-12-28T02:32:31.151Z,100730.86
2022-12-28T02:35:29.376Z,100729.09
2022-12-28T02:38:41.975Z,100728.58
2022-12-28T02:41:47.508Z,100737.27
2022-12-28T02:45:11.343Z,100740.20
2022-12-28T02:48:34.598Z,100739.21
2022-12-28T02:52:07.486Z,100748.71
2022-12-28T02:55:59.975Z,100762.63
2022-12-28T02:59:16.945Z,100744.48
2022-12-28T03:02:48.015Z,100760.74
2022-12-28T03:06:30.632Z,100746.13
2022-12-28T03:10:03.233Z,100763.70
2022-12-28T03:13:52.795Z,100760.28
2022-12-28T03:17:17.508Z,100757.86
2022-12-28T03:20:46.599Z,100756.39
2022-12-28T03:24:09.987Z,100745.58
2022-12-28T03:27:34.278Z,100757.86
2022-12-28T03:30:57.810Z,100763.50
2022-12-28T03:34:08.675Z,100770.45
2022-12-28T03:37:50.562Z,100774.85
2022-12-28T03:41:03.920Z,100771.63
2022-12-28T03:44:12.884Z,100773.33
2022-12-28T03:47:25.509Z,100771.45
2022-12-28T03:50:32.963Z,100762.34
2022-12-28T03:53:51.140Z,100769.44
2022-12-28T03:57:06.273Z,100763.03
2022-12-28T04:00:13.759Z,100772.83
2022-12-28T04:03:22.355Z,100780.77
2022-12-28T04:06:31.120Z,100798.94
2022-12-28T04:09:38.881Z,100794.66
2022-12-28T04:12:45.240Z,100795.50
2022-12-28T04:15:52.363Z,100791.95
2022-12-28T04:18:57.280Z,100788.50
2022-12-28T04:22:02.707Z,100787.85
2022-12-28T04:25:08.765Z,100801.69
2022-12-28T04:28:15.235Z,100787.07
2022-12-28T04:31:26.162Z,100799.45
2022-12-28T04:34:36.390Z,100793.39
2022-12-28T04:37:42.342Z,100801.61
2022-12-28T04:40:48.665Z,100809.45
2022-12-28T04:43:54.763Z,100798.88
2022-12-28T04:47:01.063Z,100803.00
2022-12-28T04:50:07.712Z,100811.72
2022-12-28T04:53:14.915Z,100815.01
2022-12-28T04:56:23.611Z,100830.33
2022-12-28T04:59:29.528Z,100815.01
2022-12-28T05:02:35.003Z,100822.63
2022-12-28T05:05:42.503Z,100827.52
2022-12-28T05:08:49.783Z,100833.20
2022-12-28T05:11:56.487Z,100839.44
2022-12-28T05:15:02.720Z,100862.19
2022-12-28T05:18:10.344Z,100855.95
2022-12-28T05:21:19.427Z,100862.22
2022-12-28T05:24:27.380Z,100862.98
2022-12-28T05:27:33.388Z,100867.52
2022-12-28T05:30:39.821Z,100861.16
2022-12-28T05:33:46.544Z,100868.53
2022-12-28T05:36:51.468Z,100872.35
2022-12-28T05:39:58.278Z,100870.30
2022-12-28T05:43:03.469Z,100861.62
2022-12-28T05:46:15.365Z,100871.32
2022-12-28T05:49:25.345Z,100874.67
2022-12-28T05:52:31.485Z,100883.90
2022-12-28T05:55:36.993Z,100896.00
2022-12-28T05:58:43.736Z,100883.63
2022-12-28T06:01:53.570Z,100890.52
2022-12-28T06:05:00.779Z,100900.02
2022-12-28T06:08:08.476Z,100903.74
2022-12-28T06:11:16.633Z,100915.67
2022-12-28T06:14:20.793Z,100918.55
2022-12-28T06:17:26.265Z,100918.31
2022-12-28T06:20:38.436Z,100915.75
2022-12-28T06:23:45.864Z,100923.91
2022-12-28T06:26:58.727Z,100927.34
2022-12-28T06:30:06.020Z,100921.63
2022-12-28T06:33:12.614Z,100924.95
2022-12-28T06:36:20.654Z,100927.53
2022-12-28T06:39:29.216Z,100932.13
2022-12-28T06:42:35.959Z,100937.47
2022-12-28T06:45:41.810Z,100956.75
2022-12-28T06:48:52.299Z,100946.81
2022-12-28T06:51:59.864Z,100952.22
2022-12-28T06:55:02.063Z,100954.70
2022-12-28T06:58:14.799Z,100955.81
2022-12-28T07:01:36.617Z,100960.16
2022-12-28T07:04:42.258Z,100967.52
2022-12-28T07:07:50.054Z,100959.06
2022-12-28T07:10:57.121Z,100985.68
2022-12-28T07:14:06.345Z,100975.59
2022-12-28T07:17:22.797Z,100975.27
2022-12-28T07:20:29.697Z,100972.06
2022-12-28T07:24:00.946Z,100983.27
2022-12-28T07:27:20.986Z,100992.00
2022-12-28T07:30:34.053Z,100998.45
2022-12-28T07:34:04.572Z,101001.40
2022-12-28T07:37:18.482Z,101003.16
2022-12-28T07:40:27.688Z,101003.69
2022-12-28T07:43:34.186Z,101008.86
2022-12-28T07:46:45.010Z,101010.86
2022-12-28T07:49:50.802Z,101004.34
2022-12-28T07:52:57.189Z,101012.38
2022-12-28T07:56:13.835Z,101007.46
2022-12-28T07:59:24.694Z,101003.80
2022-12-28T08:02:28.126Z,101006.03
2022-12-28T08:05:35.954Z,100989.19
2022-12-28T08:08:42.017Z,100998.07
2022-12-28T08:11:49.281Z,100996.72
2022-12-28T08:14:56.260Z,101008.07
2022-12-28T08:18:02.456Z,101009.34
2022-12-28T08:21:09.380Z,101002.09
2022-12-28T08:24:15.479Z,100998.78
2022-12-28T08:27:22.529Z,101012.44
2022-12-28T08:30:29.815Z,101007.77
2022-12-28T08:33:36.536Z,101015.18
2022-12-28T08:36:48.616Z,101004.83
2022-12-28T08:40:01.972Z,101016.77
2022-12-28T08:43:30.184Z,101009.64
2022-12-28T08:46:50.058Z,101010.72
2022-12-28T08:50:06.288Z,101017.62
2022-12-28T08:53:12.402Z,101015.42
2022-12-28T08:56:27.446Z,101020.59
2022-12-28T08:59:50.730Z,101016.66
2022-12-28T09:02:58.035Z,101026.13
2022-12-28T09:06:05.735Z,101038.95
2022-12-28T09:09:14.031Z,101050.91
2022-12-28T09:12:22.202Z,101060.27
2022-12-28T09:15:27.706Z,101040.55
2022-12-28T09:18:33.483Z,101042.27
2022-12-28T09:21:40.713Z,101049.55
2022-12-28T09:24:46.607Z,101050.03
2022-12-28T09:27:59.148Z,101053.86
2022-12-28T09:31:01.085Z,101055.37
2022-12-28T09:34:38.746Z,101062.98
2022-12-28T09:37:37.050Z,101061.27
2022-12-28T09:40:44.877Z,101065.33
2022-12-28T09:43:55.673Z,101063.82
2022-12-28T09:47:16.544Z,101067.64
2022-12-28T09:50:34.854Z,101069.72
2022-12-28T09:53:44.554Z,101076.77
2022-12-28T09:56:54.989Z,101076.53
2022-12-28T10:00:01.298Z,101074.81
2022-12-28T10:03:13.086Z,101082.94
2022-12-28T10:06:25.438Z,101099.59
2022-12-28T10:09:42.176Z,101088.52
2022-12-28T10:12:51.232Z,101092.61
2022-12-28T10:15:57.567Z,101093.84
2022-12-28T10:19:03.023Z,101098.03
2022-12-28T10:22:17.280Z,101105.56
2022-12-28T10:25:33.281Z,101106.79
2022-12-28T10:28:47.130Z,101114.05
2022-12-28T10:31:51.581Z,101105.44
2022-12-28T10:35:12.705Z,101107.91
2022-12-28T10:38:35.069Z,101111.85
2022-12-28T10:41:53.087Z,101116.80
2022-12-28T10:44:59.503Z,101117.78
2022-12-28T10:48:09.275Z,101125.44
2022-12-28T10:51:27.444Z,101115.19
2022-12-28T10:54:39.809Z,101111.61
2022-12-28T10:58:27.019Z,101116.91
2022-12-28T11:00:55.136Z,101115.97
2022-12-28T11:04:19.415Z,101126.58
2022-12-28T11:07:32.328Z,101127.30
2022-12-28T11:10:41.715Z,101131.25
2022-12-28T11:13:46.854Z,101127.91
2022-12-28T11:17:01.941Z,101139.86
2022-12-28T11:20:23.054Z,101143.45
2022-12-28T11:23:35.017Z,101150.98
2022-12-28T11:26:41.708Z,101154.30
2022-12-28T11:29:48.991Z,101171.92
2022-12-28T11:33:06.029Z,101172.16
2022-12-28T11:36:14.782Z,101182.37
2022-12-28T11:39:43.945Z,101188.19
2022-12-28T11:42:56.607Z,101176.86
2022-12-28T11:46:08.805Z,101179.97
2022-12-28T11:49:44.630Z,101194.64
2022-12-28T11:52:54.014Z,101193.16
2022-12-28T11:56:22.743Z,101187.73
2022-12-28T11:59:41.697Z,101192.80
2022-12-28T12:02:55.803Z,101199.06
2022-12-28T12:06:05.547Z,101194.77
2022-12-28T12:09:11.125Z,101197.83
2022-12-28T12:12:18.412Z,101219.29
2022-12-28T12:15:30.909Z,101227.81
2022-12-28T12:18:42.134Z,101233.48
2022-12-28T12:22:00.291Z,101251.11
2022-12-28T12:25:23.747Z,101269.10
2022-12-28T12:28:50.302Z,101235.17
2022-12-28T12:32:04.328Z,101244.53
2022-12-28T12:35:16.999Z,101247.61
2022-12-28T12:38:37.406Z,101262.28
2022-12-28T12:42:05.533Z,101261.92
2022-12-28T12:45:30.345Z,101265.36
2022-12-28T12:49:00.034Z,101261.52
2022-12-28T12:52:42.265Z,101271.41
2022-12-28T12:56:01.664Z,101273.13
2022-12-28T12:59:40.443Z,101286.09
2022-12-28T13:03:18.225Z,101291.00
2022-12-28T13:06:25.091Z,101293.71
2022-12-28T13:09:35.075Z,101305.07
2022-12-28T13:12:42.254Z,101291.75
2022-12-28T13:15:48.035Z,101300.00
2022-12-28T13:19:44.915Z,101299.72
2022-12-28T13:22:56.817Z,101307.50
2022-12-28T13:26:07.145Z,101308.20
2022-12-28T13:29:18.847Z,101318.30
2022-12-28T13:32:49.620Z,101318.53
2022-12-28T13:36:03.883Z,101325.77
2022-12-28T13:39:29.377Z,101328.94
2022-12-28T13:42:45.483Z,101341.85
2022-12-28T13:45:51.165Z,101356.76
2022-12-28T13:49:09.817Z,101347.09
2022-12-28T13:52:15.232Z,101352.38
2022-12-28T13:55:33.786Z,101362.09
2022-12-28T13:58:47.841Z,101371.16
2022-12-28T14:01:57.090Z,101374.32
2022-12-28T14:05:05.226Z,101374.77
2022-12-28T14:08:12.349Z,101377.16
2022-12-28T14:11:20.865Z,101373.73
2022-12-28T14:14:29.413Z,101376.84
2022-12-28T14:17:35.696Z,101384.75
2022-12-28T14:20:42.876Z,101388.59
2022-12-28T14:23:51.016Z,101390.56
2022-12-28T14:27:08.762Z,101394.39
2022-12-28T14:30:14.545Z,101415.33
2022-12-28T14:33:34.361Z,101410.45
2022-12-28T14:36:46.491Z,101418.27
2022-12-28T14:39:58.287Z,101420.13
2022-12-28T14:43:08.219Z,101415.77
2022-12-28T14:46:13.991Z,101417.74
2022-12-28T14:49:48.282Z,101420.92
2022-12-28T14:53:00.320Z,101429.91
2022-12-28T14:56:30.898Z,101437.92
2022-12-28T14:59:43.207Z,101436.94
2022-12-28T15:02:53.622Z,101440.02
2022-12-28T15:06:02.190Z,101450.84
2022-12-28T15:09:11.952Z,101445.94
2022-12-28T15:12:34.431Z,101446.88
2022-12-28T15:15:39.684Z,101454.63
2022-12-28T15:18:44.655Z,101450.78
2022-12-28T15:21:50.199Z,101461.20
2022-12-28T15:24:56.693Z,101464.41
2022-12-28T15:28:05.519Z,101456.41
2022-12-28T15:31:13.349Z,101461.04
2022-12-28T15:34:20.407Z,101465.30
2022-12-28T15:37:25.467Z,101468.31
2022-12-28T15:40:31.294Z,101473.63
2022-12-28T15:43:37.283Z,101474.62
2022-12-28T15:46:43.552Z,101474.82
2022-12-28T15:49:49.206Z,101471.44
2022-12-28T15:52:56.292Z,101470.02
2022-12-28T15:56:14.623Z,101477.83
2022-12-28T15:59:27.669Z,101478.44
2022-12-28T16:02:33.919Z,101491.25
2022-12-28T16:05:40.657Z,101489.73
2022-12-28T16:08:47.720Z,101495.98
2022-12-28T16:11:55.463Z,101495.47
2022-12-28T16:15:01.509Z,101498.37
2022-12-28T16:18:06.846Z,101497.66
2022-12-28T16:21:22.192Z,101497.97
2022-12-28T16:24:29.371Z,101501.92
2022-12-28T16:27:34.498Z,101501.61
2022-12-28T16:30:40.072Z,101506.34
2022-12-28T16:33:45.579Z,101500.99
2022-12-28T16:36:53.973Z,101508.22
2022-12-28T16:40:00.064Z,101506.34
2022-12-28T16:43:06.761Z,101500.55
2022-12-28T16:46:12.619Z,101500.23
2022-12-28T16:49:20.019Z,101509.02
2022-12-28T16:52:25.562Z,101513.25
2022-12-28T16:55:31.509Z,101515.58
2022-12-28T16:58:38.094Z,101523.59
2022-12-28T17:01:43.209Z,101520.38
2022-12-28T17:04:51.062Z,101540.31
2022-12-28T17:07:57.955Z,101535.37
2022-12-28T17:11:03.968Z,101539.06
2022-12-28T17:14:35.939Z,101540.05
2022-12-28T17:17:25.602Z,101539.38
2022-12-28T17:20:34.505Z,101534.65
2022-12-28T17:23:39.338Z,101536.69
2022-12-28T17:26:44.597Z,101538.72
2022-12-28T17:29:51.724Z,101536.73
2022-12-28T17:32:59.302Z,101533.34
2022-12-28T17:36:07.082Z,101530.34
2022-12-28T17:39:12.784Z,101530.38
2022-12-28T17:42:20.561Z,101535.90
2022-12-28T17:45:25.666Z,101532.55
2022-12-28T17:48:34.421Z,101534.31
2022-12-28T17:51:41.106Z,101543.97
2022-12-28T17:54:47.560Z,101555.39
2022-12-28T17:57:56.249Z,101551.89
2022-12-28T18:01:01.974Z,101546.13
2022-12-28T18:04:07.465Z,101544.39
2022-12-28T18:07:13.409Z,101540.80
2022-12-28T18:10:19.309Z,101548.31
2022-12-28T18:13:24.773Z,101551.91
2022-12-28T18:16:33.760Z,101549.19
2022-12-28T18:19:42.060Z,101554.00
2022-12-28T18:22:49.162Z,101560.75
2022-12-28T18:25:55.737Z,101546.66
2022-12-28T18:29:01.475Z,101558.03
2022-12-28T18:32:06.117Z,101558.78
2022-12-28T18:35:14.405Z,101560.88
2022-12-28T18:38:20.134Z,101556.64
2022-12-28T18:41:20.193Z,101565.02
2022-12-28T18:44:25.894Z,101569.36
2022-12-28T18:47:32.033Z,101573.73
2022-12-28T18:50:38.796Z,101575.87
2022-12-28T18:53:46.040Z,101575.17
2022-12-28T18:56:54.174Z,101574.95
2022-12-28T19:00:01.366Z,101573.49
2022-12-28T19:03:07.066Z,101570.98
2022-12-28T19:06:18.214Z,101572.98
2022-12-28T19:09:25.454Z,101578.65
2022-12-28T19:12:32.341Z,101581.20
2022-12-28T19:15:39.536Z,101579.34
2022-12-28T19:18:48.546Z,101574.21
2022-12-28T19:21:58.886Z,101584.72
2022-12-28T19:25:04.352Z,101586.63
2022-12-28T19:28:10.466Z,101590.05
2022-12-28T19:31:17.616Z,101599.66
2022-12-28T19:34:24.058Z,101610.63
2022-12-28T19:37:28.904Z,101615.64
2022-12-28T19:40:34.090Z,101615.23
2022-12-28T19:43:40.605Z,101606.37
2022-12-28T19:46:46.798Z,101608.58
2022-12-28T19:49:53.456Z,101605.50
2022-12-28T19:53:00.027Z,101603.36
2022-12-28T19:56:07.081Z,101608.38
2022-12-28T19:59:11.985Z,101617.81
2022-12-28T20:02:18.847Z,101614.61
2022-12-28T20:05:24.913Z,101616.05
2022-12-28T20:08:30.988Z,101612.00
2022-12-28T20:11:37.254Z,101619.63
2022-12-28T20:14:42.805Z,101617.89
2022-12-28T20:17:51.093Z,101613.61
2022-12-28T20:24:08.047Z,101618.81
2022-12-28T20:27:15.095Z,101617.81
2022-12-28T20:30:14.468Z,101616.30
2022-12-28T20:33:21.814Z,101613.31
2022-12-28T20:36:31.107Z,101615.12
2022-12-28T20:39:38.006Z,101622.75
2022-12-28T20:43:02.557Z,101613.61
2022-12-28T20:46:09.793Z,101626.62
2022-12-28T20:49:18.732Z,101626.16
2022-12-28T20:52:24.699Z,101633.73
2022-12-28T20:55:30.299Z,101624.80
2022-12-28T20:58:36.548Z,101627.00
2022-12-28T21:01:42.699Z,101625.36
2022-12-28T21:04:49.949Z,101634.88
2022-12-28T21:07:58.260Z,101635.34
2022-12-28T21:11:05.148Z,101635.92
2022-12-28T21:14:11.961Z,101641.78
2022-12-28T21:17:23.993Z,101642.75
2022-12-28T21:20:35.464Z,101651.20
2022-12-28T21:23:39.444Z,101642.95
2022-12-28T21:26:46.392Z,101632.09
2022-12-28T21:29:52.382Z,101642.32
2022-12-28T21:32:59.293Z,101637.31
2022-12-28T21:36:17.297Z,101638.98
2022-12-28T21:39:22.294Z,101639.84
2022-12-28T21:42:27.486Z,101630.91
2022-12-28T21:45:35.057Z,101631.37
2022-12-28T21:48:42.588Z,101631.75
2022-12-28T21:51:49.313Z,101625.42
2022-12-28T21:54:56.810Z,101632.93
2022-12-28T21:58:07.947Z,101636.03
2022-12-28T22:01:31.529Z,101634.90
2022-12-28T22:05:02.231Z,101634.81
2022-12-28T22:08:05.455Z,101633.37
2022-12-28T22:11:29.727Z,101632.28
2022-12-28T22:14:35.745Z,101622.34
2022-12-28T22:17:41.565Z,101629.87
2022-12-28T22:20:49.716Z,101627.00
2022-12-28T22:23:56.024Z,101618.66
2022-12-28T22:27:02.099Z,101615.81
2022-12-28T22:30:07.101Z,101616.66
2022-12-28T22:33:06.775Z,101618.09
2022-12-28T22:36:30.491Z,101609.63
2022-12-28T22:39:37.542Z,101605.09
2022-12-28T22:42:44.305Z,101612.97
2022-12-28T22:45:51.559Z,101621.14
2022-12-28T22:48:57.593Z,101613.31
2022-12-28T22:52:06.171Z,101617.45
2022-12-28T22:55:12.059Z,101612.44
2022-12-28T22:58:19.098Z,101611.47
2022-12-28T23:01:29.038Z,101620.77
2022-12-28T23:04:35.940Z,101617.10
2022-12-28T23:07:42.874Z,101613.67
2022-12-28T23:10:49.807Z,101610.80
2022-12-28T23:13:56.485Z,101621.88
2022-12-28T23:17:02.618Z,101624.27
2022-12-28T23:20:27.081Z,101637.07
2022-12-28T23:23:43.028Z,101623.27
2022-12-28T23:27:06.358Z,101631.84
2022-12-28T23:30:11.088Z,101632.08
2022-12-28T23:33:17.770Z,101636.24
2022-12-28T23:36:24.074Z,101635.69
2022-12-28T23:39:31.911Z,101641.88
2022-12-28T23:42:37.775Z,101649.88
2022-12-28T23:45:42.426Z,101657.41
2022-12-28T23:48:47.610Z,101659.70
2022-12-28T23:51:53.402Z,101653.27
2022-12-28T23:54:59.526Z,101652.69
2022-12-28T23:58:04.935Z,101653.48
